RBA weather

Rabat-Salé Airport
Rabat, Rabat-Salé Province, Morocco

Public forecast

Using degrees Celsius for public forecast. Weather courtesy of forecast.io.

METAR (pilot weather report)

Retrieved 2019/05/24 04:30 UTC (2 minutes ago):

GMME 240430Z 22005KT CAVOK 13/12 Q1015 NOSIG

TAF (pilot weather forecast)

Retrieved 2019/05/24 00:34 UTC (4 hours ago):

TAF GMME 232300Z 2400/2506 24004KT 8000 NSC PROB30 TEMPO 2404/2408 4000 BR